Time;durP1;ratioP1;P1;durP2;ratioP2;P2;SDS_P1;SDS_P2;PMS_P1;PMS_P2;Temp;Humidity;BMP_temperature;BMP_pressure;BME280_temperature;BME280_humidity;BME280_pressure;Samples;Min_cycle;Max_cycle;Signal;HPM_P1;HPM_P2
2023/01/06 11:58:20;;;;;;;2.78;2.28;;;;;;;;;;5111543;27;20127;-76
2023/01/06 12:00:55;;;;;;;2.45;2.13;;;;;;;;;;5118166;28;20043;-76
2023/01/06 12:03:40;;;;;;;3.92;2.28;;;;;;;;;;5126600;28;20039;-76
2023/01/06 12:06:21;;;;;;;3.15;2.47;;;;;;;;;;5131775;28;20651;-76
2023/01/06 12:08:59;;;;;;;2.92;2.40;;;;;;;;;;5125932;28;20118;-82
2023/01/06 12:11:44;;;;;;;2.38;2.05;;;;;;;;;;5122252;28;20035;-81
2023/01/06 12:14:17;;;;;;;4.00;1.70;;;;;;;;;;5106990;28;20063;-80
2023/01/06 12:17:04;;;;;;;1.98;1.77;;;;;;;;;;5104128;28;20042;-82
2023/01/06 12:19:42;;;;;;;4.32;1.73;;;;;;;;;;5087359;27;20035;-83
2023/01/06 12:22:20;;;;;;;1.52;1.42;;;;;;;;;;5111378;28;20055;-83
2023/01/06 12:24:48;;;;;;;1.75;1.52;;;;;;;;;;5123357;28;20110;-83
2023/01/06 12:27:19;;;;;;;2.17;1.70;;;;;;;;;;5129111;28;20363;-77
2023/01/06 12:29:46;;;;;;;1.67;1.58;;;;;;;;;;5127864;28;20044;-79
2023/01/06 12:32:17;;;;;;;1.60;1.45;;;;;;;;;;5110529;28;20055;-79
2023/01/06 12:34:47;;;;;;;1.67;1.40;;;;;;;;;;5111065;28;20036;-78
2023/01/06 12:37:36;;;;;;;1.27;1.08;;;;;;;;;;5110086;28;20064;-79
2023/01/06 12:40:22;;;;;;;1.92;1.38;;;;;;;;;;5102130;28;20044;-79
2023/01/06 12:42:57;;;;;;;1.20;1.10;;;;;;;;;;5111660;28;20036;-79
2023/01/06 12:45:42;;;;;;;3.40;3.10;;;;;;;;;;5109882;28;20042;-79
2023/01/06 12:48:16;;;;;;;3.40;2.90;;;;;;;;;;5110220;28;20062;-79
2023/01/06 12:50:45;;;;;;;3.75;3.45;;;;;;;;;;5109869;28;20551;-79
2023/01/06 12:53:21;;;;;;;4.50;4.10;;;;;;;;;;5111680;28;20040;-79
2023/01/06 12:55:47;;;;;;;1.58;1.48;;;;;;;;;;5109606;28;20039;-79
2023/01/06 12:58:16;;;;;;;2.50;2.30;;;;;;;;;;5110118;28;20131;-79
2023/01/06 13:01:15;;;;;;;1.38;1.27;;;;;;;;;;5110098;28;20032;-79
2023/01/06 13:03:59;;;;;;;3.05;2.83;;;;;;;;;;5088337;28;20093;-78
2023/01/06 13:06:35;;;;;;;2.85;2.53;;;;;;;;;;5110152;28;20058;-79
2023/01/06 13:09:04;;;;;;;2.33;2.13;;;;;;;;;;5098098;28;20054;-79
2023/01/06 13:11:39;;;;;;;1.80;1.30;;;;;;;;;;5096471;28;20463;-79
2023/01/06 13:14:05;;;;;;;4.18;1.40;;;;;;;;;;5097802;28;20059;-79
2023/01/06 13:16:31;;;;;;;2.17;1.60;;;;;;;;;;5097455;28;20035;-79
2023/01/06 13:19:00;;;;;;;2.08;1.50;;;;;;;;;;5096389;28;20050;-79
2023/01/06 13:21:27;;;;;;;1.52;1.10;;;;;;;;;;5096312;28;20032;-79
2023/01/06 13:23:56;;;;;;;3.05;2.85;;;;;;;;;;5097837;28;20032;-81
2023/01/06 13:26:23;;;;;;;1.90;1.80;;;;;;;;;;5096432;28;20116;-79
2023/01/06 13:29:07;;;;;;;3.65;1.70;;;;;;;;;;5096124;28;20039;-79
2023/01/06 13:31:42;;;;;;;1.40;1.30;;;;;;;;;;5097272;28;20028;-79
2023/01/06 13:34:26;;;;;;;1.58;1.48;;;;;;;;;;5097526;28;20040;-79
2023/01/06 13:37:10;;;;;;;3.03;1.73;;;;;;;;;;5097038;28;20082;-79
2023/01/06 13:39:39;;;;;;;3.92;2.22;;;;;;;;;;5095952;28;20482;-79
2023/01/06 13:42:06;;;;;;;8.93;8.13;;;;;;;;;;5095614;28;20032;-79
2023/01/06 13:44:35;;;;;;;4.70;3.95;;;;;;;;;;5095464;28;20075;-79
2023/01/06 13:47:12;;;;;;;8.00;7.30;;;;;;;;;;5096820;28;20040;-79
2023/01/06 13:49:40;;;;;;;10.20;9.30;;;;;;;;;;5097104;28;20040;-79
2023/01/06 13:52:15;;;;;;;10.38;9.55;;;;;;;;;;5095717;28;20119;-79
2023/01/06 13:54:41;;;;;;;3.92;3.63;;;;;;;;;;5097530;28;20038;-79
2023/01/06 13:57:19;;;;;;;1.30;1.20;;;;;;;;;;5095627;28;20051;-79
2023/01/06 14:00:03;;;;;;;1.75;1.52;;;;;;;;;;5095374;28;20043;-79
2023/01/06 14:02:39;;;;;;;1.35;1.25;;;;;;;;;;5096531;28;20075;-79
2023/01/06 14:05:06;;;;;;;1.20;1.10;;;;;;;;;;5095175;28;20032;-79
2023/01/06 14:07:39;;;;;;;5.50;2.10;;;;;;;;;;5097275;28;20032;-79
2023/01/06 14:10:07;;;;;;;6.28;3.22;;;;;;;;;;5095363;28;20055;-79
2023/01/06 14:12:34;;;;;;;4.38;3.40;;;;;;;;;;5096642;28;20168;-79
2023/01/06 14:15:02;;;;;;;3.22;1.30;;;;;;;;;;5094848;28;20512;-79
2023/01/06 14:17:37;;;;;;;1.30;1.20;;;;;;;;;;5096436;28;20055;-78
2023/01/06 14:20:04;;;;;;;2.95;2.20;;;;;;;;;;5095743;28;20044;-76
2023/01/06 14:22:30;;;;;;;2.80;2.58;;;;;;;;;;5096448;28;20066;-79
2023/01/06 14:25:02;;;;;;;1.38;1.15;;;;;;;;;;5095428;28;20036;-77
2023/01/06 14:27:46;;;;;;;1.05;1.02;;;;;;;;;;5095614;28;20043;-75
2023/01/06 14:30:21;;;;;;;1.52;0.95;;;;;;;;;;5090514;28;20046;-78
2023/01/06 14:32:47;;;;;;;1.85;1.58;;;;;;;;;;5104479;28;20116;-77
2023/01/06 14:35:15;;;;;;;1.13;1.00;;;;;;;;;;5104194;28;20069;-76
2023/01/06 14:37:43;;;;;;;1.17;0.88;;;;;;;;;;5108173;28;20101;-76
2023/01/06 14:40:35;;;;;;;2.05;1.45;;;;;;;;;;5094977;28;20546;-75
2023/01/06 14:43:03;;;;;;;1.10;1.05;;;;;;;;;;5093081;28;20074;-76
2023/01/06 14:45:33;;;;;;;4.65;4.25;;;;;;;;;;5094686;28;20075;-75
2023/01/06 14:48:02;;;;;;;1.55;1.45;;;;;;;;;;5094920;28;20123;-74
2023/01/06 14:50:35;;;;;;;3.17;1.30;;;;;;;;;;5095031;28;20070;-74
2023/01/06 14:53:09;;;;;;;1.02;0.98;;;;;;;;;;5103823;28;20063;-73
2023/01/06 14:55:38;;;;;;;2.10;1.85;;;;;;;;;;5114712;28;20043;-74
2023/01/06 14:58:04;;;;;;;1.70;1.00;;;;;;;;;;5115369;28;20052;-74
2023/01/06 15:00:32;;;;;;;2.10;1.30;;;;;;;;;;5101717;28;20062;-74
2023/01/06 15:03:24;;;;;;;2.15;1.95;;;;;;;;;;5094199;28;20048;-75
2023/01/06 15:05:51;;;;;;;2.83;1.60;;;;;;;;;;5091736;28;20120;-74
2023/01/06 15:08:18;;;;;;;1.60;1.23;;;;;;;;;;5093880;28;20047;-77
2023/01/06 15:10:48;;;;;;;1.33;1.13;;;;;;;;;;5094431;28;20085;-74
2023/01/06 15:13:20;;;;;;;2.03;1.30;;;;;;;;;;5094188;28;20035;-74
2023/01/06 15:15:52;;;;;;;1.63;1.52;;;;;;;;;;5093212;28;20131;-74
2023/01/06 15:18:18;;;;;;;2.25;1.52;;;;;;;;;;5094534;28;20052;-74
2023/01/06 15:20:45;;;;;;;1.20;1.10;;;;;;;;;;5093952;28;20044;-74
2023/01/06 15:23:18;;;;;;;1.90;1.75;;;;;;;;;;5094410;28;20036;-74
2023/01/06 15:25:47;;;;;;;2.92;1.55;;;;;;;;;;5094004;28;20043;-74
2023/01/06 15:28:33;;;;;;;1.58;1.48;;;;;;;;;;5093277;28;20038;-74
2023/01/06 15:31:00;;;;;;;2.03;1.52;;;;;;;;;;5094647;28;20047;-73
2023/01/06 15:33:36;;;;;;;2.05;1.55;;;;;;;;;;5093958;28;20117;-73
2023/01/06 15:36:03;;;;;;;1.98;1.58;;;;;;;;;;5094129;28;20040;-73
2023/01/06 15:38:30;;;;;;;2.03;1.52;;;;;;;;;;5094836;28;20122;-74
2023/01/06 15:40:57;;;;;;;3.45;1.60;;;;;;;;;;5094480;28;20089;-73
2023/01/06 15:43:24;;;;;;;2.30;1.63;;;;;;;;;;5094753;28;20113;-74
2023/01/06 15:46:02;;;;;;;3.33;1.50;;;;;;;;;;5094315;28;20089;-73
2023/01/06 15:48:30;;;;;;;4.88;2.10;;;;;;;;;;5095252;28;20047;-74
2023/01/06 15:50:56;;;;;;;2.20;1.40;;;;;;;;;;5094636;28;20032;-74
2023/01/06 15:53:30;;;;;;;2.08;1.45;;;;;;;;;;5094329;28;20036;-74
2023/01/06 15:55:57;;;;;;;2.33;1.40;;;;;;;;;;5093672;28;20112;-73
2023/01/06 15:58:23;;;;;;;2.13;1.40;;;;;;;;;;5095538;28;20127;-74
2023/01/06 16:00:51;;;;;;;1.25;1.10;;;;;;;;;;5094589;28;20032;-74
2023/01/06 16:03:21;;;;;;;1.77;1.00;;;;;;;;;;5094862;28;20043;-74
2023/01/06 16:05:48;;;;;;;1.50;1.33;;;;;;;;;;5074699;28;20113;-73
2023/01/06 16:08:34;;;;;;;2.47;2.28;;;;;;;;;;5074636;28;20536;-74
2023/01/06 16:11:10;;;;;;;21.30;15.02;;;;;;;;;;5074765;28;20483;-74
2023/01/06 16:13:36;;;;;;;11.23;7.82;;;;;;;;;;5074831;28;20058;-74
2023/01/06 16:16:05;;;;;;;4.82;4.35;;;;;;;;;;5074505;28;20083;-74
2023/01/06 16:18:33;;;;;;;3.42;2.40;;;;;;;;;;5069116;28;20041;-74
2023/01/06 16:21:00;;;;;;;2.25;2.00;;;;;;;;;;5073898;28;20141;-74
2023/01/06 16:23:32;;;;;;;4.25;3.40;;;;;;;;;;5073316;28;20068;-73
2023/01/06 16:26:02;;;;;;;2.22;1.73;;;;;;;;;;5073606;28;20044;-74
2023/01/06 16:28:29;;;;;;;1.50;1.40;;;;;;;;;;5093549;28;20126;-73
2023/01/06 16:31:05;;;;;;;10.50;8.95;;;;;;;;;;5092950;28;20047;-75
2023/01/06 16:33:33;;;;;;;5.57;4.20;;;;;;;;;;5092156;28;20382;-73
2023/01/06 16:35:59;;;;;;;4.35;3.35;;;;;;;;;;5101724;28;20047;-71
2023/01/06 16:38:26;;;;;;;3.78;3.08;;;;;;;;;;5114564;28;20036;-71
2023/01/06 16:40:52;;;;;;;3.05;2.83;;;;;;;;;;5114011;28;20432;-71
2023/01/06 16:43:18;;;;;;;4.50;3.90;;;;;;;;;;5103821;28;20043;-71
2023/01/06 16:45:47;;;;;;;9.68;8.77;;;;;;;;;;5097034;28;20495;-72
2023/01/06 16:48:14;;;;;;;8.07;3.97;;;;;;;;;;5098582;28;20032;-71
2023/01/06 16:50:43;;;;;;;4.55;3.53;;;;;;;;;;5112755;28;20064;-70
2023/01/06 16:53:09;;;;;;;6.07;5.28;;;;;;;;;;5105510;28;20494;-72
2023/01/06 16:55:39;;;;;;;6.47;3.83;;;;;;;;;;5097849;28;20047;-72
2023/01/06 16:58:11;;;;;;;5.70;3.90;;;;;;;;;;5097641;28;20047;-72
2023/01/06 17:00:39;;;;;;;4.75;3.20;;;;;;;;;;5097586;28;20043;-72
2023/01/06 17:03:11;;;;;;;3.85;3.00;;;;;;;;;;5096929;28;20040;-72
2023/01/06 17:05:38;;;;;;;3.47;2.65;;;;;;;;;;5097284;28;20035;-73
2023/01/06 17:08:05;;;;;;;3.25;2.80;;;;;;;;;;5097794;28;20108;-72
2023/01/06 17:10:31;;;;;;;4.00;2.90;;;;;;;;;;5097564;28;20071;-72
2023/01/06 17:15:45;;;;;;;3.15;2.85;;;;;;;;;;5096216;28;20571;-75
2023/01/06 17:18:30;;;;;;;5.00;3.65;;;;;;;;;;5096736;28;20036;-75
2023/01/06 17:21:01;;;;;;;4.35;3.30;;;;;;;;;;5094939;28;20499;-75
2023/01/06 17:23:28;;;;;;;5.72;3.90;;;;;;;;;;5093899;28;20032;-74
2023/01/06 17:26:00;;;;;;;5.68;3.80;;;;;;;;;;5096377;28;20040;-74
2023/01/06 17:28:26;;;;;;;6.15;3.90;;;;;;;;;;5096307;28;20046;-75
2023/01/06 17:30:53;;;;;;;5.50;3.47;;;;;;;;;;5096112;28;20032;-74
2023/01/06 17:33:19;;;;;;;113.15;86.35;;;;;;;;;;5096625;28;20551;-73
2023/01/06 17:35:49;;;;;;;14.23;11.10;;;;;;;;;;5096397;28;20044;-75
2023/01/06 17:38:21;;;;;;;8.60;6.68;;;;;;;;;;5096992;28;20040;-74
2023/01/06 17:40:48;;;;;;;7.20;5.82;;;;;;;;;;5096318;28;20051;-74
2023/01/06 17:43:22;;;;;;;11.52;9.30;;;;;;;;;;5096952;28;20032;-74
2023/01/06 17:45:48;;;;;;;31.75;26.40;;;;;;;;;;5096975;28;20068;-74
2023/01/06 17:48:14;;;;;;;12.75;10.93;;;;;;;;;;5097154;28;20123;-74
2023/01/06 17:50:45;;;;;;;14.48;12.98;;;;;;;;;;5096356;28;20044;-74
2023/01/06 17:56:03;;;;;;;10.60;8.07;;;;;;;;;;5096056;28;20063;-74
2023/01/06 17:58:30;;;;;;;9.80;7.60;;;;;;;;;;5096637;28;20039;-74
2023/01/06 18:00:56;;;;;;;17.67;14.85;;;;;;;;;;5096362;28;20040;-74
2023/01/06 18:03:26;;;;;;;13.73;11.68;;;;;;;;;;5097281;28;20047;-74
2023/01/06 18:06:11;;;;;;;11.07;8.93;;;;;;;;;;5097080;28;20114;-74
2023/01/06 18:08:38;;;;;;;10.80;8.70;;;;;;;;;;5096426;28;20044;-74
2023/01/06 18:11:20;;;;;;;8.57;7.07;;;;;;;;;;5096719;28;20040;-74
2023/01/06 18:13:49;;;;;;;22.70;16.90;;;;;;;;;;5096719;28;20051;-74
2023/01/06 18:16:18;;;;;;;14.45;9.88;;;;;;;;;;5096244;28;20059;-74
2023/01/06 18:18:45;;;;;;;16.65;11.70;;;;;;;;;;5096247;28;20046;-74
2023/01/06 18:21:14;;;;;;;16.35;13.35;;;;;;;;;;5096234;28;20038;-74
2023/01/06 18:23:44;;;;;;;11.00;9.90;;;;;;;;;;5096725;28;20043;-74
2023/01/06 18:26:26;;;;;;;18.00;12.25;;;;;;;;;;5096556;28;20036;-74
2023/01/06 18:28:56;;;;;;;28.60;19.92;;;;;;;;;;5096342;28;20131;-74
2023/01/06 18:31:22;;;;;;;35.70;28.02;;;;;;;;;;5094808;28;20044;-74
2023/01/06 18:33:49;;;;;;;27.10;24.20;;;;;;;;;;5096250;28;20074;-74
2023/01/06 18:36:15;;;;;;;24.02;19.83;;;;;;;;;;5096046;28;20052;-74
2023/01/06 18:38:41;;;;;;;22.17;18.50;;;;;;;;;;5096174;28;20043;-74
2023/01/06 18:41:12;;;;;;;26.00;20.38;;;;;;;;;;5096268;28;20043;-74
2023/01/06 18:43:39;;;;;;;22.63;17.55;;;;;;;;;;5096847;28;20040;-74
2023/01/06 18:46:15;;;;;;;16.08;13.93;;;;;;;;;;5096089;28;20044;-74
2023/01/06 18:48:41;;;;;;;11.02;7.47;;;;;;;;;;5096237;28;20040;-74
2023/01/06 18:51:15;;;;;;;8.50;5.57;;;;;;;;;;5095909;28;20093;-74
2023/01/06 18:53:42;;;;;;;10.80;6.07;;;;;;;;;;5094552;28;20028;-74
2023/01/06 18:56:10;;;;;;;21.70;13.52;;;;;;;;;;5095169;28;20464;-74
2023/01/06 18:58:46;;;;;;;14.05;8.77;;;;;;;;;;5091722;28;20043;-74
2023/01/06 19:01:16;;;;;;;13.35;9.57;;;;;;;;;;5094506;28;20055;-74
2023/01/06 19:03:46;;;;;;;12.32;9.23;;;;;;;;;;5093823;28;20036;-74
2023/01/06 19:06:15;;;;;;;10.73;8.13;;;;;;;;;;5094084;28;20039;-74
2023/01/06 19:08:42;;;;;;;9.18;6.47;;;;;;;;;;5094844;28;20161;-74
2023/01/06 19:11:15;;;;;;;11.48;7.07;;;;;;;;;;5094605;28;20036;-74
2023/01/06 19:13:41;;;;;;;9.95;6.88;;;;;;;;;;5095533;28;20040;-74
2023/01/06 19:16:23;;;;;;;31.95;22.13;;;;;;;;;;5094830;28;20132;-74
2023/01/06 19:18:49;;;;;;;15.10;11.55;;;;;;;;;;5095735;28;20044;-74
2023/01/06 19:21:16;;;;;;;11.88;9.45;;;;;;;;;;5095131;28;20136;-74
2023/01/06 19:23:42;;;;;;;12.13;10.77;;;;;;;;;;5095385;28;20036;-74
2023/01/06 19:26:16;;;;;;;10.05;8.50;;;;;;;;;;5094955;28;20052;-74
2023/01/06 19:28:42;;;;;;;8.13;6.80;;;;;;;;;;5095333;28;20042;-74
2023/01/06 19:31:14;;;;;;;10.88;8.48;;;;;;;;;;5094487;28;20047;-74
2023/01/06 19:33:50;;;;;;;22.92;20.48;;;;;;;;;;5095526;28;20043;-74
2023/01/06 19:36:32;;;;;;;22.75;18.60;;;;;;;;;;5094662;28;20172;-74
2023/01/06 19:39:00;;;;;;;19.05;15.68;;;;;;;;;;5094537;28;20090;-74
2023/01/06 19:41:28;;;;;;;14.18;10.75;;;;;;;;;;5094540;28;20051;-74
2023/01/06 19:44:07;;;;;;;13.75;9.05;;;;;;;;;;5094478;28;20395;-74
2023/01/06 19:46:37;;;;;;;21.88;17.80;;;;;;;;;;5094344;28;20048;-74
2023/01/06 19:49:23;;;;;;;83.40;65.22;;;;;;;;;;5094472;28;20042;-74
2023/01/06 19:51:51;;;;;;;25.67;20.00;;;;;;;;;;5094776;28;20036;-74
2023/01/06 19:54:27;;;;;;;13.98;10.32;;;;;;;;;;5094713;28;20047;-74
2023/01/06 19:56:54;;;;;;;15.70;12.38;;;;;;;;;;5092865;28;20406;-74
2023/01/06 19:59:29;;;;;;;10.75;8.82;;;;;;;;;;5094152;28;20043;-74
2023/01/06 20:02:02;;;;;;;8.05;6.13;;;;;;;;;;5094631;28;20067;-74
2023/01/06 20:04:29;;;;;;;10.70;8.60;;;;;;;;;;5094500;28;20503;-74
2023/01/06 20:06:55;;;;;;;22.35;20.25;;;;;;;;;;5093282;28;20394;-74
2023/01/06 20:09:21;;;;;;;20.88;18.98;;;;;;;;;;5094252;28;20039;-74
2023/01/06 20:11:49;;;;;;;19.75;18.02;;;;;;;;;;5094546;28;20119;-74
2023/01/06 20:14:15;;;;;;;19.05;17.15;;;;;;;;;;5094669;28;20044;-74
2023/01/06 20:16:41;;;;;;;17.45;15.73;;;;;;;;;;5094625;28;20055;-74
2023/01/06 20:19:07;;;;;;;11.93;10.82;;;;;;;;;;5097059;28;20032;-74
2023/01/06 20:21:33;;;;;;;11.57;9.98;;;;;;;;;;5098277;28;20040;-74
2023/01/06 20:23:59;;;;;;;9.02;8.13;;;;;;;;;;5098482;28;20040;-74
2023/01/06 20:26:25;;;;;;;9.75;7.40;;;;;;;;;;5098136;28;20117;-74
2023/01/06 20:28:51;;;;;;;5.88;5.32;;;;;;;;;;5098386;28;20044;-74
2023/01/06 20:31:18;;;;;;;7.93;5.88;;;;;;;;;;5098164;28;20039;-74
2023/01/06 20:33:44;;;;;;;12.15;6.68;;;;;;;;;;5098280;28;20035;-74
2023/01/06 20:36:15;;;;;;;11.57;9.38;;;;;;;;;;5097985;28;20132;-74
2023/01/06 20:38:41;;;;;;;13.40;10.82;;;;;;;;;;5107053;28;20044;-73
2023/01/06 20:41:07;;;;;;;11.45;8.15;;;;;;;;;;5108804;28;20047;-73
2023/01/06 20:43:34;;;;;;;6.70;5.47;;;;;;;;;;5099703;28;20035;-74
2023/01/06 20:46:00;;;;;;;6.63;5.68;;;;;;;;;;5112082;28;20093;-74
2023/01/06 20:48:26;;;;;;;7.85;6.18;;;;;;;;;;5103289;28;20066;-74
2023/01/06 20:50:52;;;;;;;9.57;6.72;;;;;;;;;;5108832;28;20059;-73
2023/01/06 20:53:18;;;;;;;7.30;5.97;;;;;;;;;;5096347;28;20043;-74
2023/01/06 20:55:44;;;;;;;9.23;7.82;;;;;;;;;;5096846;28;20109;-74
2023/01/06 20:58:11;;;;;;;11.82;8.70;;;;;;;;;;5097196;28;20054;-74
2023/01/06 21:00:37;;;;;;;10.43;8.40;;;;;;;;;;5097049;28;20040;-74
2023/01/06 21:03:04;;;;;;;10.63;8.45;;;;;;;;;;5090295;28;20032;-76
2023/01/06 21:05:31;;;;;;;13.90;10.88;;;;;;;;;;5098118;28;20051;-75
2023/01/06 21:07:57;;;;;;;12.63;9.70;;;;;;;;;;5108260;28;20039;-75
2023/01/06 21:10:23;;;;;;;12.73;10.73;;;;;;;;;;5088722;28;20494;-73
2023/01/06 21:12:49;;;;;;;10.15;9.05;;;;;;;;;;5096294;28;20542;-75
2023/01/06 21:15:15;;;;;;;7.45;5.68;;;;;;;;;;5105529;28;20087;-73
2023/01/06 21:17:42;;;;;;;6.40;4.97;;;;;;;;;;5101925;28;20067;-74
2023/01/06 21:20:08;;;;;;;10.25;6.93;;;;;;;;;;5113609;28;20189;-74
2023/01/06 21:22:35;;;;;;;10.63;8.40;;;;;;;;;;5113990;28;20036;-74
2023/01/06 21:25:01;;;;;;;11.05;7.40;;;;;;;;;;5112007;28;20134;-74
2023/01/06 21:27:27;;;;;;;7.38;6.10;;;;;;;;;;5106632;28;20070;-74
2023/01/06 21:29:53;;;;;;;7.25;5.20;;;;;;;;;;5108866;28;20092;-74
2023/01/06 21:32:19;;;;;;;7.53;6.22;;;;;;;;;;5087550;28;20058;-73
2023/01/06 21:34:46;;;;;;;10.00;5.97;;;;;;;;;;5098906;28;20495;-74
2023/01/06 21:37:12;;;;;;;10.15;5.35;;;;;;;;;;5097574;28;20165;-74
2023/01/06 21:39:38;;;;;;;6.68;4.10;;;;;;;;;;5106076;28;20138;-74
2023/01/06 21:44:49;;;;;;;4.95;3.90;;;;;;;;;;5116086;28;20516;-74
2023/01/06 21:47:15;;;;;;;10.70;5.40;;;;;;;;;;5114786;28;20039;-74
2023/01/06 21:49:44;;;;;;;7.50;5.38;;;;;;;;;;5102993;28;20043;-74
2023/01/06 21:52:12;;;;;;;6.20;4.95;;;;;;;;;;5109882;28;20093;-74
2023/01/06 21:54:38;;;;;;;6.68;5.60;;;;;;;;;;5094866;28;20036;-74
2023/01/06 21:57:05;;;;;;;8.30;5.88;;;;;;;;;;5104794;28;20135;-75
2023/01/06 21:59:31;;;;;;;8.38;6.07;;;;;;;;;;5115556;28;20085;-75
2023/01/06 22:01:58;;;;;;;8.05;6.38;;;;;;;;;;5102418;28;20036;-75
2023/01/06 22:04:24;;;;;;;11.40;9.02;;;;;;;;;;5094683;28;20452;-75
2023/01/06 22:06:50;;;;;;;11.45;8.63;;;;;;;;;;5096561;28;20047;-74
2023/01/06 22:09:17;;;;;;;10.23;6.72;;;;;;;;;;5097144;28;20562;-73
2023/01/06 22:11:46;;;;;;;6.78;5.70;;;;;;;;;;5102749;28;20043;-74
2023/01/06 22:14:12;;;;;;;5.95;4.90;;;;;;;;;;5094599;28;20127;-74
2023/01/06 22:16:39;;;;;;;7.63;5.45;;;;;;;;;;5103824;28;20055;-74
2023/01/06 22:19:05;;;;;;;8.20;5.72;;;;;;;;;;5098839;28;20115;-74
2023/01/06 22:21:32;;;;;;;11.77;8.20;;;;;;;;;;5107863;28;20043;-73
2023/01/06 22:23:58;;;;;;;9.30;7.25;;;;;;;;;;5106769;28;20036;-74
2023/01/06 22:26:24;;;;;;;8.55;6.43;;;;;;;;;;5105466;28;20047;-74
2023/01/06 22:28:51;;;;;;;6.68;5.50;;;;;;;;;;5103582;28;20532;-73
2023/01/06 22:31:17;;;;;;;9.20;6.57;;;;;;;;;;5115299;28;20074;-75
2023/01/06 22:33:43;;;;;;;7.80;6.13;;;;;;;;;;5114822;28;20036;-75
2023/01/06 22:36:09;;;;;;;8.02;5.55;;;;;;;;;;5113641;28;20146;-75
2023/01/06 22:38:35;;;;;;;5.28;4.75;;;;;;;;;;5114666;28;20122;-74
2023/01/06 22:41:02;;;;;;;7.10;5.32;;;;;;;;;;5106395;28;20497;-73
2023/01/06 22:43:28;;;;;;;6.47;5.20;;;;;;;;;;5097622;28;20528;-74
2023/01/06 22:45:58;;;;;;;6.95;5.15;;;;;;;;;;5093582;28;20044;-74
2023/01/06 22:48:24;;;;;;;7.32;5.50;;;;;;;;;;5092573;28;20044;-74
2023/01/06 22:51:00;;;;;;;6.45;5.20;;;;;;;;;;5094201;28;20043;-74
2023/01/06 22:53:28;;;;;;;6.55;5.72;;;;;;;;;;5094674;28;20115;-75
2023/01/06 22:55:57;;;;;;;8.77;6.32;;;;;;;;;;5094666;28;20052;-74
2023/01/06 22:58:23;;;;;;;8.18;6.30;;;;;;;;;;5094823;28;20094;-74
2023/01/06 23:00:50;;;;;;;7.07;5.82;;;;;;;;;;5094348;28;20085;-74
2023/01/06 23:03:17;;;;;;;9.75;5.47;;;;;;;;;;5094681;28;20044;-74
2023/01/06 23:05:43;;;;;;;7.00;5.25;;;;;;;;;;5095106;28;20036;-74
2023/01/06 23:08:09;;;;;;;7.68;5.60;;;;;;;;;;5095308;28;20091;-75
2023/01/06 23:10:36;;;;;;;7.63;4.75;;;;;;;;;;5094999;28;20064;-74
2023/01/06 23:13:02;;;;;;;7.40;5.18;;;;;;;;;;5094929;28;20051;-74
2023/01/06 23:15:28;;;;;;;9.02;5.28;;;;;;;;;;5094521;28;20538;-75
2023/01/06 23:17:54;;;;;;;6.53;5.18;;;;;;;;;;5095140;28;20059;-75
2023/01/06 23:20:20;;;;;;;8.75;5.20;;;;;;;;;;5095223;28;20040;-75
2023/01/06 23:22:46;;;;;;;7.25;5.40;;;;;;;;;;5095107;28;20036;-74
2023/01/06 23:25:13;;;;;;;9.43;6.22;;;;;;;;;;5095503;28;20036;-74
2023/01/06 23:27:40;;;;;;;9.55;5.80;;;;;;;;;;5095307;28;20124;-75
2023/01/06 23:30:06;;;;;;;7.10;5.38;;;;;;;;;;5094828;28;20085;-75
2023/01/06 23:32:32;;;;;;;10.18;5.25;;;;;;;;;;5094720;28;20039;-75
2023/01/06 23:34:58;;;;;;;6.15;5.03;;;;;;;;;;5094897;28;20050;-75
2023/01/06 23:37:25;;;;;;;6.25;5.15;;;;;;;;;;5094493;28;20100;-75
2023/01/06 23:39:52;;;;;;;8.18;5.10;;;;;;;;;;5095046;28;20092;-74
2023/01/06 23:42:18;;;;;;;5.78;4.85;;;;;;;;;;5094521;28;20066;-75
2023/01/06 23:44:44;;;;;;;6.95;5.43;;;;;;;;;;5094315;28;20110;-74
2023/01/06 23:47:10;;;;;;;6.80;4.90;;;;;;;;;;5094823;28;20121;-75
2023/01/06 23:49:37;;;;;;;7.85;4.90;;;;;;;;;;5095220;28;20040;-74
2023/01/06 23:52:03;;;;;;;9.88;5.68;;;;;;;;;;5094514;28;20039;-74
2023/01/06 23:54:29;;;;;;;10.60;6.78;;;;;;;;;;5095239;28;20074;-75
2023/01/06 23:56:55;;;;;;;11.63;7.07;;;;;;;;;;5094716;28;20040;-75
2023/01/06 23:59:23;;;;;;;11.32;8.48;;;;;;;;;;5095275;28;20120;-75
